sensor_id;sensor_type;location;lat;lon;timestamp;temperature;humidity
15535;DHT22;7869;49.264;8.596;2022-09-25T00:00:08;13.40;99.90
15535;DHT22;7869;49.264;8.596;2022-09-25T00:02:33;13.50;99.90
15535;DHT22;7869;49.264;8.596;2022-09-25T00:04:59;13.40;99.90
15535;DHT22;7869;49.264;8.596;2022-09-25T00:07:24;13.50;99.90
15535;DHT22;7869;49.264;8.596;2022-09-25T00:09:50;13.40;99.90
15535;DHT22;7869;49.264;8.596;2022-09-25T00:12:15;13.40;99.90
15535;DHT22;7869;49.264;8.596;2022-09-25T00:14:40;13.40;99.90
15535;DHT22;7869;49.264;8.596;2022-09-25T00:17:06;13.50;99.90
15535;DHT22;7869;49.264;8.596;2022-09-25T00:19:31;13.50;99.90
15535;DHT22;7869;49.264;8.596;2022-09-25T00:22:16;13.50;99.90
15535;DHT22;7869;49.264;8.596;2022-09-25T00:24:41;13.40;99.90
15535;DHT22;7869;49.264;8.596;2022-09-25T00:27:07;13.40;99.90
15535;DHT22;7869;49.264;8.596;2022-09-25T00:29:34;13.40;99.90
15535;DHT22;7869;49.264;8.596;2022-09-25T00:32:00;13.40;99.90
15535;DHT22;7869;49.264;8.596;2022-09-25T00:34:25;13.40;99.90
15535;DHT22;7869;49.264;8.596;2022-09-25T00:36:51;13.30;99.90
15535;DHT22;7869;49.264;8.596;2022-09-25T00:39:16;13.40;99.90
15535;DHT22;7869;49.264;8.596;2022-09-25T00:41:42;13.30;99.90
15535;DHT22;7869;49.264;8.596;2022-09-25T00:46:52;13.30;99.90
15535;DHT22;7869;49.264;8.596;2022-09-25T00:49:23;13.30;99.90
15535;DHT22;7869;49.264;8.596;2022-09-25T00:51:56;13.30;99.90
15535;DHT22;7869;49.264;8.596;2022-09-25T00:56:49;13.30;99.90
15535;DHT22;7869;49.264;8.596;2022-09-25T00:59:17;13.30;99.90
15535;DHT22;7869;49.264;8.596;2022-09-25T01:01:44;13.20;99.90
15535;DHT22;7869;49.264;8.596;2022-09-25T01:04:10;13.30;99.90
15535;DHT22;7869;49.264;8.596;2022-09-25T01:06:37;13.20;99.90
15535;DHT22;7869;49.264;8.596;2022-09-25T01:09:03;13.20;99.90
15535;DHT22;7869;49.264;8.596;2022-09-25T01:11:28;13.20;99.90
15535;DHT22;7869;49.264;8.596;2022-09-25T01:13:57;13.20;99.90
15535;DHT22;7869;49.264;8.596;2022-09-25T01:16:33;13.20;99.90
15535;DHT22;7869;49.264;8.596;2022-09-25T01:19:15;13.20;99.90
15535;DHT22;7869;49.264;8.596;2022-09-25T01:21:47;13.20;99.90
15535;DHT22;7869;49.264;8.596;2022-09-25T01:29:24;13.20;99.90
15535;DHT22;7869;49.264;8.596;2022-09-25T01:32:01;13.20;99.90
15535;DHT22;7869;49.264;8.596;2022-09-25T01:34:30;13.10;99.90
15535;DHT22;7869;49.264;8.596;2022-09-25T01:37:08;13.10;99.90
15535;DHT22;7869;49.264;8.596;2022-09-25T01:39:37;13.20;99.90
15535;DHT22;7869;49.264;8.596;2022-09-25T01:42:38;13.10;99.90
15535;DHT22;7869;49.264;8.596;2022-09-25T01:44:57;13.20;99.90
15535;DHT22;7869;49.264;8.596;2022-09-25T01:47:27;13.20;99.90
15535;DHT22;7869;49.264;8.596;2022-09-25T01:50:00;13.20;99.90
15535;DHT22;7869;49.264;8.596;2022-09-25T01:52:29;13.20;99.90
15535;DHT22;7869;49.264;8.596;2022-09-25T01:55:11;13.20;99.90
15535;DHT22;7869;49.264;8.596;2022-09-25T01:58:02;13.20;99.90
15535;DHT22;7869;49.264;8.596;2022-09-25T02:00:31;13.20;99.90
15535;DHT22;7869;49.264;8.596;2022-09-25T02:03:13;13.20;99.90
15535;DHT22;7869;49.264;8.596;2022-09-25T02:06:01;13.20;99.90
15535;DHT22;7869;49.264;8.596;2022-09-25T02:08:41;13.20;99.90
15535;DHT22;7869;49.264;8.596;2022-09-25T02:11:08;13.20;99.90
15535;DHT22;7869;49.264;8.596;2022-09-25T02:14:08;13.20;99.90
15535;DHT22;7869;49.264;8.596;2022-09-25T02:16:38;13.20;99.90
15535;DHT22;7869;49.264;8.596;2022-09-25T02:19:12;13.10;99.90
15535;DHT22;7869;49.264;8.596;2022-09-25T02:22:07;13.10;99.90
15535;DHT22;7869;49.264;8.596;2022-09-25T02:27:04;13.20;99.90
15535;DHT22;7869;49.264;8.596;2022-09-25T02:29:29;13.10;99.90
15535;DHT22;7869;49.264;8.596;2022-09-25T02:32:13;13.10;99.90
15535;DHT22;7869;49.264;8.596;2022-09-25T02:34:40;13.10;99.90
15535;DHT22;7869;49.264;8.596;2022-09-25T02:37:16;13.10;99.90
15535;DHT22;7869;49.264;8.596;2022-09-25T02:39:46;13.10;99.90
15535;DHT22;7869;49.264;8.596;2022-09-25T02:45:08;13.10;99.90
15535;DHT22;7869;49.264;8.596;2022-09-25T02:48:06;13.10;99.90
15535;DHT22;7869;49.264;8.596;2022-09-25T02:50:56;13.10;99.90
15535;DHT22;7869;49.264;8.596;2022-09-25T02:53:42;13.10;99.90
15535;DHT22;7869;49.264;8.596;2022-09-25T02:56:29;13.10;99.90
15535;DHT22;7869;49.264;8.596;2022-09-25T02:59:01;13.10;99.90
15535;DHT22;7869;49.264;8.596;2022-09-25T03:01:31;13.10;99.90
15535;DHT22;7869;49.264;8.596;2022-09-25T03:03:59;13.10;99.90
15535;DHT22;7869;49.264;8.596;2022-09-25T03:06:25;13.10;99.90
15535;DHT22;7869;49.264;8.596;2022-09-25T03:08:54;13.00;99.90
15535;DHT22;7869;49.264;8.596;2022-09-25T03:11:23;13.00;99.90
15535;DHT22;7869;49.264;8.596;2022-09-25T03:13:55;13.00;99.90
15535;DHT22;7869;49.264;8.596;2022-09-25T03:16:52;13.00;99.90
15535;DHT22;7869;49.264;8.596;2022-09-25T03:19:21;13.00;99.90
15535;DHT22;7869;49.264;8.596;2022-09-25T03:21:47;13.00;99.90
15535;DHT22;7869;49.264;8.596;2022-09-25T03:24:16;13.00;99.90
15535;DHT22;7869;49.264;8.596;2022-09-25T03:26:42;13.00;99.90
15535;DHT22;7869;49.264;8.596;2022-09-25T03:29:08;13.00;99.90
15535;DHT22;7869;49.264;8.596;2022-09-25T03:31:33;12.90;99.90
15535;DHT22;7869;49.264;8.596;2022-09-25T03:33:59;13.00;99.90
15535;DHT22;7869;49.264;8.596;2022-09-25T03:36:27;13.00;99.90
15535;DHT22;7869;49.264;8.596;2022-09-25T03:38:54;13.00;99.90
15535;DHT22;7869;49.264;8.596;2022-09-25T03:41:26;13.00;99.90
15535;DHT22;7869;49.264;8.596;2022-09-25T03:43:52;12.90;99.90
15535;DHT22;7869;49.264;8.596;2022-09-25T03:46:38;12.90;99.90
15535;DHT22;7869;49.264;8.596;2022-09-25T03:49:04;12.90;99.90
15535;DHT22;7869;49.264;8.596;2022-09-25T03:51:31;12.90;99.90
15535;DHT22;7869;49.264;8.596;2022-09-25T03:53:57;12.90;99.90
15535;DHT22;7869;49.264;8.596;2022-09-25T03:56:25;13.00;99.90
15535;DHT22;7869;49.264;8.596;2022-09-25T03:58:52;12.90;99.90
15535;DHT22;7869;49.264;8.596;2022-09-25T04:01:18;12.90;99.90
15535;DHT22;7869;49.264;8.596;2022-09-25T04:03:46;12.90;99.90
15535;DHT22;7869;49.264;8.596;2022-09-25T04:06:16;12.90;99.90
15535;DHT22;7869;49.264;8.596;2022-09-25T04:08:44;12.90;99.90
15535;DHT22;7869;49.264;8.596;2022-09-25T04:11:10;12.80;99.90
15535;DHT22;7869;49.264;8.596;2022-09-25T04:13:36;12.80;99.90
15535;DHT22;7869;49.264;8.596;2022-09-25T04:16:03;12.80;99.90
15535;DHT22;7869;49.264;8.596;2022-09-25T04:18:30;12.80;99.90
15535;DHT22;7869;49.264;8.596;2022-09-25T04:21:06;12.80;99.90
15535;DHT22;7869;49.264;8.596;2022-09-25T04:23:33;12.80;99.90
15535;DHT22;7869;49.264;8.596;2022-09-25T04:25:59;12.80;99.90
15535;DHT22;7869;49.264;8.596;2022-09-25T04:28:25;12.80;99.90
15535;DHT22;7869;49.264;8.596;2022-09-25T04:30:51;12.80;99.90
15535;DHT22;7869;49.264;8.596;2022-09-25T04:33:17;12.80;99.90
15535;DHT22;7869;49.264;8.596;2022-09-25T04:36:03;12.80;99.90
15535;DHT22;7869;49.264;8.596;2022-09-25T04:38:29;12.80;99.90
15535;DHT22;7869;49.264;8.596;2022-09-25T04:40:57;12.80;99.90
15535;DHT22;7869;49.264;8.596;2022-09-25T04:43:26;12.80;99.90
15535;DHT22;7869;49.264;8.596;2022-09-25T04:45:51;12.70;99.90
15535;DHT22;7869;49.264;8.596;2022-09-25T04:48:17;12.70;99.90
15535;DHT22;7869;49.264;8.596;2022-09-25T04:50:47;12.70;99.90
15535;DHT22;7869;49.264;8.596;2022-09-25T04:53:13;12.70;99.90
15535;DHT22;7869;49.264;8.596;2022-09-25T04:55:39;12.70;99.90
15535;DHT22;7869;49.264;8.596;2022-09-25T04:58:04;12.70;99.90
15535;DHT22;7869;49.264;8.596;2022-09-25T05:00:31;12.70;99.90
15535;DHT22;7869;49.264;8.596;2022-09-25T05:02:57;12.70;99.90
15535;DHT22;7869;49.264;8.596;2022-09-25T05:05:24;12.70;99.90
15535;DHT22;7869;49.264;8.596;2022-09-25T05:07:54;12.70;99.90
15535;DHT22;7869;49.264;8.596;2022-09-25T05:10:21;12.70;99.90
15535;DHT22;7869;49.264;8.596;2022-09-25T05:12:46;12.70;99.90
15535;DHT22;7869;49.264;8.596;2022-09-25T05:15:13;12.70;99.90
15535;DHT22;7869;49.264;8.596;2022-09-25T05:17:38;12.70;99.90
15535;DHT22;7869;49.264;8.596;2022-09-25T05:20:04;12.70;99.90
15535;DHT22;7869;49.264;8.596;2022-09-25T05:22:30;12.70;99.90
15535;DHT22;7869;49.264;8.596;2022-09-25T05:24:55;12.70;99.90
15535;DHT22;7869;49.264;8.596;2022-09-25T05:27:21;12.70;99.90
15535;DHT22;7869;49.264;8.596;2022-09-25T05:29:47;12.70;99.90
15535;DHT22;7869;49.264;8.596;2022-09-25T05:32:14;12.60;99.90
15535;DHT22;7869;49.264;8.596;2022-09-25T05:34:40;12.70;99.90
15535;DHT22;7869;49.264;8.596;2022-09-25T05:37:05;12.70;99.90
15535;DHT22;7869;49.264;8.596;2022-09-25T05:39:31;12.70;99.90
15535;DHT22;7869;49.264;8.596;2022-09-25T05:41:56;12.70;99.90
15535;DHT22;7869;49.264;8.596;2022-09-25T05:44:22;12.70;99.90
15535;DHT22;7869;49.264;8.596;2022-09-25T05:46:52;12.70;99.90
15535;DHT22;7869;49.264;8.596;2022-09-25T05:49:18;12.60;99.90
15535;DHT22;7869;49.264;8.596;2022-09-25T05:51:43;12.60;99.90
15535;DHT22;7869;49.264;8.596;2022-09-25T05:54:09;12.60;99.90
15535;DHT22;7869;49.264;8.596;2022-09-25T05:56:35;12.60;99.90
15535;DHT22;7869;49.264;8.596;2022-09-25T05:59:00;12.60;99.90
15535;DHT22;7869;49.264;8.596;2022-09-25T06:01:26;12.60;99.90
15535;DHT22;7869;49.264;8.596;2022-09-25T06:03:51;12.70;99.90
15535;DHT22;7869;49.264;8.596;2022-09-25T06:06:17;12.60;99.90
15535;DHT22;7869;49.264;8.596;2022-09-25T06:08:42;12.60;99.90
15535;DHT22;7869;49.264;8.596;2022-09-25T06:11:08;12.60;99.90
15535;DHT22;7869;49.264;8.596;2022-09-25T06:13:35;12.70;99.90
15535;DHT22;7869;49.264;8.596;2022-09-25T06:16:03;12.70;99.90
15535;DHT22;7869;49.264;8.596;2022-09-25T06:18:30;12.70;99.90
15535;DHT22;7869;49.264;8.596;2022-09-25T06:21:02;12.70;99.90
15535;DHT22;7869;49.264;8.596;2022-09-25T06:23:28;12.70;99.90
15535;DHT22;7869;49.264;8.596;2022-09-25T06:25:54;12.70;99.90
15535;DHT22;7869;49.264;8.596;2022-09-25T06:28:19;12.70;99.90
15535;DHT22;7869;49.264;8.596;2022-09-25T06:30:45;12.70;99.90
15535;DHT22;7869;49.264;8.596;2022-09-25T06:33:12;12.70;99.90
15535;DHT22;7869;49.264;8.596;2022-09-25T06:35:42;12.80;99.90
15535;DHT22;7869;49.264;8.596;2022-09-25T06:38:09;12.80;99.90
15535;DHT22;7869;49.264;8.596;2022-09-25T06:40:35;12.80;99.90
15535;DHT22;7869;49.264;8.596;2022-09-25T06:43:03;12.80;99.90
15535;DHT22;7869;49.264;8.596;2022-09-25T06:45:31;12.80;99.90
15535;DHT22;7869;49.264;8.596;2022-09-25T06:48:04;12.80;99.90
15535;DHT22;7869;49.264;8.596;2022-09-25T06:50:37;12.70;99.90
15535;DHT22;7869;49.264;8.596;2022-09-25T06:53:04;12.70;99.90
15535;DHT22;7869;49.264;8.596;2022-09-25T06:55:30;12.70;99.90
15535;DHT22;7869;49.264;8.596;2022-09-25T06:58:02;12.80;99.90
15535;DHT22;7869;49.264;8.596;2022-09-25T07:00:29;12.80;99.90
15535;DHT22;7869;49.264;8.596;2022-09-25T07:02:56;12.70;99.90
15535;DHT22;7869;49.264;8.596;2022-09-25T07:05:41;12.80;99.90
15535;DHT22;7869;49.264;8.596;2022-09-25T07:08:09;12.80;99.90
15535;DHT22;7869;49.264;8.596;2022-09-25T07:10:35;12.80;99.90
15535;DHT22;7869;49.264;8.596;2022-09-25T07:13:00;12.80;99.90
15535;DHT22;7869;49.264;8.596;2022-09-25T07:15:26;12.80;99.90
15535;DHT22;7869;49.264;8.596;2022-09-25T07:17:51;12.70;99.90
15535;DHT22;7869;49.264;8.596;2022-09-25T07:20:17;12.80;99.90
15535;DHT22;7869;49.264;8.596;2022-09-25T07:22:42;12.80;99.90
15535;DHT22;7869;49.264;8.596;2022-09-25T07:25:09;12.80;99.90
15535;DHT22;7869;49.264;8.596;2022-09-25T07:27:35;12.80;99.90
15535;DHT22;7869;49.264;8.596;2022-09-25T07:30:01;12.80;99.90
15535;DHT22;7869;49.264;8.596;2022-09-25T07:32:27;12.80;99.90
15535;DHT22;7869;49.264;8.596;2022-09-25T07:34:53;12.80;99.90
15535;DHT22;7869;49.264;8.596;2022-09-25T07:37:19;12.80;99.90
15535;DHT22;7869;49.264;8.596;2022-09-25T07:39:45;12.80;99.90
15535;DHT22;7869;49.264;8.596;2022-09-25T07:42:10;12.80;99.90
15535;DHT22;7869;49.264;8.596;2022-09-25T07:44:36;12.90;99.90
15535;DHT22;7869;49.264;8.596;2022-09-25T07:47:02;12.80;99.90
15535;DHT22;7869;49.264;8.596;2022-09-25T07:49:31;12.80;99.90
15535;DHT22;7869;49.264;8.596;2022-09-25T07:51:57;12.90;99.90
15535;DHT22;7869;49.264;8.596;2022-09-25T07:54:23;12.90;99.90
15535;DHT22;7869;49.264;8.596;2022-09-25T07:56:49;12.90;99.90
15535;DHT22;7869;49.264;8.596;2022-09-25T07:59:14;12.90;99.90
15535;DHT22;7869;49.264;8.596;2022-09-25T08:01:40;13.00;99.90
15535;DHT22;7869;49.264;8.596;2022-09-25T08:04:05;13.00;99.90
15535;DHT22;7869;49.264;8.596;2022-09-25T08:06:33;13.00;99.90
15535;DHT22;7869;49.264;8.596;2022-09-25T08:08:59;13.00;99.90
15535;DHT22;7869;49.264;8.596;2022-09-25T08:11:25;13.00;99.90
15535;DHT22;7869;49.264;8.596;2022-09-25T08:13:52;13.00;99.90
15535;DHT22;7869;49.264;8.596;2022-09-25T08:16:18;13.10;99.90
15535;DHT22;7869;49.264;8.596;2022-09-25T08:18:47;13.00;99.90
15535;DHT22;7869;49.264;8.596;2022-09-25T08:21:18;13.10;99.90
15535;DHT22;7869;49.264;8.596;2022-09-25T08:23:48;13.10;99.90
15535;DHT22;7869;49.264;8.596;2022-09-25T08:26:15;13.20;99.90
15535;DHT22;7869;49.264;8.596;2022-09-25T08:28:41;13.20;99.90
15535;DHT22;7869;49.264;8.596;2022-09-25T08:31:06;13.20;99.90
15535;DHT22;7869;49.264;8.596;2022-09-25T08:33:33;13.20;99.90
15535;DHT22;7869;49.264;8.596;2022-09-25T08:36:04;13.20;99.90
15535;DHT22;7869;49.264;8.596;2022-09-25T08:38:30;13.10;99.90
15535;DHT22;7869;49.264;8.596;2022-09-25T08:41:10;13.10;99.90
15535;DHT22;7869;49.264;8.596;2022-09-25T08:43:41;13.10;99.90
15535;DHT22;7869;49.264;8.596;2022-09-25T08:46:19;13.10;99.90
15535;DHT22;7869;49.264;8.596;2022-09-25T08:49:07;13.10;99.90
15535;DHT22;7869;49.264;8.596;2022-09-25T08:51:44;13.10;99.90
15535;DHT22;7869;49.264;8.596;2022-09-25T08:54:18;13.10;99.90
15535;DHT22;7869;49.264;8.596;2022-09-25T08:56:48;13.20;99.90
15535;DHT22;7869;49.264;8.596;2022-09-25T09:01:54;13.20;99.90
15535;DHT22;7869;49.264;8.596;2022-09-25T09:04:37;13.20;99.90
15535;DHT22;7869;49.264;8.596;2022-09-25T09:07:12;13.30;99.90
15535;DHT22;7869;49.264;8.596;2022-09-25T09:09:50;13.30;99.90
15535;DHT22;7869;49.264;8.596;2022-09-25T09:12:27;13.40;99.90
15535;DHT22;7869;49.264;8.596;2022-09-25T09:15:13;13.40;99.90
15535;DHT22;7869;49.264;8.596;2022-09-25T09:17:41;13.40;99.90
15535;DHT22;7869;49.264;8.596;2022-09-25T09:20:18;13.50;99.90
15535;DHT22;7869;49.264;8.596;2022-09-25T09:22:48;13.50;99.90
15535;DHT22;7869;49.264;8.596;2022-09-25T09:28:28;13.50;99.90
15535;DHT22;7869;49.264;8.596;2022-09-25T09:33:56;13.70;99.90
15535;DHT22;7869;49.264;8.596;2022-09-25T09:36:38;13.80;99.90
15535;DHT22;7869;49.264;8.596;2022-09-25T09:40:11;13.80;99.90
15535;DHT22;7869;49.264;8.596;2022-09-25T09:42:33;13.80;99.90
15535;DHT22;7869;49.264;8.596;2022-09-25T09:50:41;13.90;99.90
15535;DHT22;7869;49.264;8.596;2022-09-25T09:53:31;14.00;99.90
15535;DHT22;7869;49.264;8.596;2022-09-25T09:56:23;14.10;99.90
15535;DHT22;7869;49.264;8.596;2022-09-25T09:59:00;14.10;99.90
15535;DHT22;7869;49.264;8.596;2022-09-25T10:01:35;14.20;99.90
15535;DHT22;7869;49.264;8.596;2022-09-25T10:04:12;14.40;99.90
15535;DHT22;7869;49.264;8.596;2022-09-25T10:06:50;14.40;99.90
15535;DHT22;7869;49.264;8.596;2022-09-25T10:09:17;14.50;99.90
15535;DHT22;7869;49.264;8.596;2022-09-25T10:11:44;14.50;99.90
15535;DHT22;7869;49.264;8.596;2022-09-25T10:14:18;14.60;99.90
15535;DHT22;7869;49.264;8.596;2022-09-25T10:16:49;14.70;99.90
15535;DHT22;7869;49.264;8.596;2022-09-25T10:19:19;14.80;99.90
15535;DHT22;7869;49.264;8.596;2022-09-25T10:22:03;14.80;99.90
15535;DHT22;7869;49.264;8.596;2022-09-25T10:33:01;14.80;99.90
15535;DHT22;7869;49.264;8.596;2022-09-25T10:38:03;14.70;99.90
15535;DHT22;7869;49.264;8.596;2022-09-25T10:40:37;14.70;99.90
15535;DHT22;7869;49.264;8.596;2022-09-25T10:43:18;14.70;99.90
15535;DHT22;7869;49.264;8.596;2022-09-25T10:45:45;14.70;99.90
15535;DHT22;7869;49.264;8.596;2022-09-25T10:48:32;14.70;99.90
15535;DHT22;7869;49.264;8.596;2022-09-25T10:51:17;14.60;99.90
15535;DHT22;7869;49.264;8.596;2022-09-25T10:53:46;14.60;99.90
15535;DHT22;7869;49.264;8.596;2022-09-25T11:01:16;14.50;99.90
15535;DHT22;7869;49.264;8.596;2022-09-25T11:03:53;14.60;99.90
15535;DHT22;7869;49.264;8.596;2022-09-25T11:06:25;14.80;99.90
15535;DHT22;7869;49.264;8.596;2022-09-25T11:09:15;15.00;99.90
15535;DHT22;7869;49.264;8.596;2022-09-25T11:11:41;15.20;99.90
15535;DHT22;7869;49.264;8.596;2022-09-25T11:14:27;15.40;99.90
15535;DHT22;7869;49.264;8.596;2022-09-25T11:16:57;15.60;99.90
15535;DHT22;7869;49.264;8.596;2022-09-25T11:24:26;15.90;99.90
15535;DHT22;7869;49.264;8.596;2022-09-25T11:26:55;16.00;99.90
15535;DHT22;7869;49.264;8.596;2022-09-25T11:29:24;16.10;99.90
15535;DHT22;7869;49.264;8.596;2022-09-25T11:31:55;16.20;99.90
15535;DHT22;7869;49.264;8.596;2022-09-25T11:39:43;16.50;99.90
15535;DHT22;7869;49.264;8.596;2022-09-25T11:42:34;16.40;99.90
15535;DHT22;7869;49.264;8.596;2022-09-25T11:50:13;16.50;99.90
15535;DHT22;7869;49.264;8.596;2022-09-25T12:01:23;16.80;99.90
15535;DHT22;7869;49.264;8.596;2022-09-25T12:06:32;17.00;99.90
15535;DHT22;7869;49.264;8.596;2022-09-25T12:11:47;16.90;99.90
15535;DHT22;7869;49.264;8.596;2022-09-25T12:17:03;16.90;99.90
15535;DHT22;7869;49.264;8.596;2022-09-25T12:25:04;16.70;99.90
15535;DHT22;7869;49.264;8.596;2022-09-25T12:33:01;16.30;99.90
15535;DHT22;7869;49.264;8.596;2022-09-25T12:35:38;16.30;99.90
15535;DHT22;7869;49.264;8.596;2022-09-25T12:43:46;16.30;99.90
15535;DHT22;7869;49.264;8.596;2022-09-25T12:51:46;16.50;99.90
15535;DHT22;7869;49.264;8.596;2022-09-25T12:54:19;16.70;99.90
15535;DHT22;7869;49.264;8.596;2022-09-25T12:56:52;16.90;99.90
15535;DHT22;7869;49.264;8.596;2022-09-25T13:11:42;16.80;99.90
15535;DHT22;7869;49.264;8.596;2022-09-25T13:14:18;16.60;99.90
15535;DHT22;7869;49.264;8.596;2022-09-25T13:16:46;16.40;99.90
15535;DHT22;7869;49.264;8.596;2022-09-25T13:21:48;16.20;99.90
15535;DHT22;7869;49.264;8.596;2022-09-25T13:24:14;15.80;99.90
15535;DHT22;7869;49.264;8.596;2022-09-25T13:26:46;15.60;99.90
15535;DHT22;7869;49.264;8.596;2022-09-25T13:29:24;15.40;99.90
15535;DHT22;7869;49.264;8.596;2022-09-25T13:32:01;15.10;99.90
15535;DHT22;7869;49.264;8.596;2022-09-25T13:34:26;15.00;99.90
15535;DHT22;7869;49.264;8.596;2022-09-25T13:36:55;15.10;99.90
15535;DHT22;7869;49.264;8.596;2022-09-25T13:42:20;15.10;99.90
15535;DHT22;7869;49.264;8.596;2022-09-25T14:00:25;16.40;99.90
15535;DHT22;7869;49.264;8.596;2022-09-25T14:02:52;16.40;99.90
15535;DHT22;7869;49.264;8.596;2022-09-25T14:05:28;16.40;99.90
15535;DHT22;7869;49.264;8.596;2022-09-25T14:08:07;16.40;99.90
15535;DHT22;7869;49.264;8.596;2022-09-25T14:10:34;16.20;99.90
15535;DHT22;7869;49.264;8.596;2022-09-25T14:13:00;16.10;99.90
15535;DHT22;7869;49.264;8.596;2022-09-25T14:15:35;16.00;99.90
15535;DHT22;7869;49.264;8.596;2022-09-25T14:18:05;15.90;99.90
15535;DHT22;7869;49.264;8.596;2022-09-25T14:20:41;15.90;99.90
15535;DHT22;7869;49.264;8.596;2022-09-25T14:23:13;15.80;99.90
15535;DHT22;7869;49.264;8.596;2022-09-25T14:25:40;15.60;99.90
15535;DHT22;7869;49.264;8.596;2022-09-25T14:28:31;15.40;99.90
15535;DHT22;7869;49.264;8.596;2022-09-25T14:36:34;14.90;99.90
15535;DHT22;7869;49.264;8.596;2022-09-25T14:39:18;14.90;99.90
15535;DHT22;7869;49.264;8.596;2022-09-25T14:47:03;14.90;99.90
15535;DHT22;7869;49.264;8.596;2022-09-25T14:49:34;14.90;99.90
15535;DHT22;7869;49.264;8.596;2022-09-25T14:52:07;14.90;99.90
15535;DHT22;7869;49.264;8.596;2022-09-25T14:54:36;14.80;99.90
15535;DHT22;7869;49.264;8.596;2022-09-25T14:57:04;14.60;99.90
15535;DHT22;7869;49.264;8.596;2022-09-25T14:59:41;14.50;99.90
15535;DHT22;7869;49.264;8.596;2022-09-25T15:02:11;14.50;99.90
15535;DHT22;7869;49.264;8.596;2022-09-25T15:04:40;14.50;99.90
15535;DHT22;7869;49.264;8.596;2022-09-25T15:09:38;14.40;99.90
15535;DHT22;7869;49.264;8.596;2022-09-25T15:12:19;14.40;99.90
15535;DHT22;7869;49.264;8.596;2022-09-25T15:17:30;14.40;99.90
15535;DHT22;7869;49.264;8.596;2022-09-25T15:19:56;14.40;99.90
15535;DHT22;7869;49.264;8.596;2022-09-25T15:22:24;14.30;99.90
15535;DHT22;7869;49.264;8.596;2022-09-25T15:24:54;14.30;99.90
15535;DHT22;7869;49.264;8.596;2022-09-25T15:27:23;14.10;99.90
15535;DHT22;7869;49.264;8.596;2022-09-25T15:29:50;14.10;99.90
15535;DHT22;7869;49.264;8.596;2022-09-25T15:32:20;14.00;99.90
15535;DHT22;7869;49.264;8.596;2022-09-25T15:34:46;13.90;99.90
15535;DHT22;7869;49.264;8.596;2022-09-25T15:39:50;13.90;99.90
15535;DHT22;7869;49.264;8.596;2022-09-25T15:42:17;13.90;99.90
15535;DHT22;7869;49.264;8.596;2022-09-25T15:44:43;13.90;99.90
15535;DHT22;7869;49.264;8.596;2022-09-25T15:49:53;14.00;99.90
15535;DHT22;7869;49.264;8.596;2022-09-25T15:52:24;13.90;99.90
15535;DHT22;7869;49.264;8.596;2022-09-25T15:54:52;14.00;99.90
15535;DHT22;7869;49.264;8.596;2022-09-25T15:57:22;13.90;99.90
15535;DHT22;7869;49.264;8.596;2022-09-25T15:59:49;13.80;99.90
15535;DHT22;7869;49.264;8.596;2022-09-25T16:02:35;13.90;99.90
15535;DHT22;7869;49.264;8.596;2022-09-25T16:05:22;13.90;99.90
15535;DHT22;7869;49.264;8.596;2022-09-25T16:07:50;13.90;99.90
15535;DHT22;7869;49.264;8.596;2022-09-25T16:12:45;13.80;99.90
15535;DHT22;7869;49.264;8.596;2022-09-25T16:20:39;13.80;99.90
15535;DHT22;7869;49.264;8.596;2022-09-25T16:23:06;13.80;99.90
15535;DHT22;7869;49.264;8.596;2022-09-25T16:25:42;13.80;99.90
15535;DHT22;7869;49.264;8.596;2022-09-25T16:28:13;13.80;99.90
15535;DHT22;7869;49.264;8.596;2022-09-25T16:30:52;13.80;99.90
15535;DHT22;7869;49.264;8.596;2022-09-25T16:33:21;13.80;99.90
15535;DHT22;7869;49.264;8.596;2022-09-25T16:35:48;13.70;99.90
15535;DHT22;7869;49.264;8.596;2022-09-25T16:38:30;13.70;99.90
15535;DHT22;7869;49.264;8.596;2022-09-25T16:43:28;13.70;99.90
15535;DHT22;7869;49.264;8.596;2022-09-25T16:45:58;13.70;99.90
15535;DHT22;7869;49.264;8.596;2022-09-25T16:48:37;13.60;99.90
15535;DHT22;7869;49.264;8.596;2022-09-25T16:51:15;13.60;99.90
15535;DHT22;7869;49.264;8.596;2022-09-25T16:53:43;13.60;99.90
15535;DHT22;7869;49.264;8.596;2022-09-25T16:56:09;13.50;99.90
15535;DHT22;7869;49.264;8.596;2022-09-25T16:58:35;13.50;99.90
15535;DHT22;7869;49.264;8.596;2022-09-25T17:01:01;13.50;99.90
15535;DHT22;7869;49.264;8.596;2022-09-25T17:03:29;13.50;99.90
15535;DHT22;7869;49.264;8.596;2022-09-25T17:06:17;13.40;99.90
15535;DHT22;7869;49.264;8.596;2022-09-25T17:08:43;13.40;99.90
15535;DHT22;7869;49.264;8.596;2022-09-25T17:11:09;13.40;99.90
15535;DHT22;7869;49.264;8.596;2022-09-25T17:13:35;13.40;99.90
15535;DHT22;7869;49.264;8.596;2022-09-25T17:16:01;13.30;99.90
15535;DHT22;7869;49.264;8.596;2022-09-25T17:18:27;13.30;99.90
15535;DHT22;7869;49.264;8.596;2022-09-25T17:20:53;13.30;99.90
15535;DHT22;7869;49.264;8.596;2022-09-25T17:23:20;13.30;99.90
15535;DHT22;7869;49.264;8.596;2022-09-25T17:25:48;13.30;99.90
15535;DHT22;7869;49.264;8.596;2022-09-25T17:28:14;13.30;99.90
15535;DHT22;7869;49.264;8.596;2022-09-25T17:30:41;13.20;99.90
15535;DHT22;7869;49.264;8.596;2022-09-25T17:33:14;13.20;99.90
15535;DHT22;7869;49.264;8.596;2022-09-25T17:35:48;13.20;99.90
15535;DHT22;7869;49.264;8.596;2022-09-25T17:38:15;13.10;99.90
15535;DHT22;7869;49.264;8.596;2022-09-25T17:40:41;13.10;99.90
15535;DHT22;7869;49.264;8.596;2022-09-25T17:43:08;13.10;99.90
15535;DHT22;7869;49.264;8.596;2022-09-25T17:48:16;13.00;99.90
15535;DHT22;7869;49.264;8.596;2022-09-25T17:50:49;13.00;99.90
15535;DHT22;7869;49.264;8.596;2022-09-25T17:53:17;12.90;99.90
15535;DHT22;7869;49.264;8.596;2022-09-25T17:55:44;12.90;99.90
15535;DHT22;7869;49.264;8.596;2022-09-25T17:58:13;12.90;99.90
15535;DHT22;7869;49.264;8.596;2022-09-25T18:00:40;12.90;99.90
15535;DHT22;7869;49.264;8.596;2022-09-25T18:03:06;12.90;99.90
15535;DHT22;7869;49.264;8.596;2022-09-25T18:05:32;12.90;99.90
15535;DHT22;7869;49.264;8.596;2022-09-25T18:07:58;12.90;99.90
15535;DHT22;7869;49.264;8.596;2022-09-25T18:10:24;12.90;99.90
15535;DHT22;7869;49.264;8.596;2022-09-25T18:12:57;12.90;99.90
15535;DHT22;7869;49.264;8.596;2022-09-25T18:15:26;12.90;99.90
15535;DHT22;7869;49.264;8.596;2022-09-25T18:17:53;12.90;99.90
15535;DHT22;7869;49.264;8.596;2022-09-25T18:20:19;12.90;99.90
15535;DHT22;7869;49.264;8.596;2022-09-25T18:23:03;12.90;99.90
15535;DHT22;7869;49.264;8.596;2022-09-25T18:25:30;12.90;99.90
15535;DHT22;7869;49.264;8.596;2022-09-25T18:27:56;12.90;99.90
15535;DHT22;7869;49.264;8.596;2022-09-25T18:30:21;12.90;99.90
15535;DHT22;7869;49.264;8.596;2022-09-25T18:32:49;12.90;99.90
15535;DHT22;7869;49.264;8.596;2022-09-25T18:35:15;12.80;99.90
15535;DHT22;7869;49.264;8.596;2022-09-25T18:37:41;12.80;99.90
15535;DHT22;7869;49.264;8.596;2022-09-25T18:40:08;12.80;99.90
15535;DHT22;7869;49.264;8.596;2022-09-25T18:42:34;12.80;99.90
15535;DHT22;7869;49.264;8.596;2022-09-25T18:45:00;12.80;99.90
15535;DHT22;7869;49.264;8.596;2022-09-25T18:47:26;12.80;99.90
15535;DHT22;7869;49.264;8.596;2022-09-25T18:49:53;12.70;99.90
15535;DHT22;7869;49.264;8.596;2022-09-25T18:52:19;12.70;99.90